sensor_id;sensor_type;location;lat;lon;timestamp;P1;durP1;ratioP1;P2;durP2;ratioP2
21036;SDS011;10677;50.942;4.028;2023-05-07T00:02:06;12.30;;;5.07;;
21036;SDS011;10677;50.942;4.028;2023-05-07T00:04:32;12.95;;;5.07;;
21036;SDS011;10677;50.942;4.028;2023-05-07T00:07:02;10.98;;;4.63;;
21036;SDS011;10677;50.942;4.028;2023-05-07T00:09:28;12.98;;;5.07;;
21036;SDS011;10677;50.942;4.028;2023-05-07T00:11:54;13.32;;;4.57;;
21036;SDS011;10677;50.942;4.028;2023-05-07T00:14:20;13.50;;;4.88;;
21036;SDS011;10677;50.942;4.028;2023-05-07T00:16:46;14.77;;;5.30;;
21036;SDS011;10677;50.942;4.028;2023-05-07T00:19:11;12.13;;;5.05;;
21036;SDS011;10677;50.942;4.028;2023-05-07T00:21:37;14.88;;;4.80;;
21036;SDS011;10677;50.942;4.028;2023-05-07T00:24:03;10.85;;;4.65;;
21036;SDS011;10677;50.942;4.028;2023-05-07T00:26:29;15.48;;;4.53;;
21036;SDS011;10677;50.942;4.028;2023-05-07T00:28:55;12.82;;;5.30;;
21036;SDS011;10677;50.942;4.028;2023-05-07T00:31:20;10.90;;;4.50;;
21036;SDS011;10677;50.942;4.028;2023-05-07T00:33:46;11.82;;;5.10;;
21036;SDS011;10677;50.942;4.028;2023-05-07T00:36:11;13.40;;;4.88;;
21036;SDS011;10677;50.942;4.028;2023-05-07T00:38:37;14.05;;;5.07;;
21036;SDS011;10677;50.942;4.028;2023-05-07T00:41:03;12.85;;;4.90;;
21036;SDS011;10677;50.942;4.028;2023-05-07T00:43:28;10.55;;;4.85;;
21036;SDS011;10677;50.942;4.028;2023-05-07T00:45:54;12.15;;;5.05;;
21036;SDS011;10677;50.942;4.028;2023-05-07T00:48:20;14.38;;;5.47;;
21036;SDS011;10677;50.942;4.028;2023-05-07T00:50:46;9.65;;;4.45;;
21036;SDS011;10677;50.942;4.028;2023-05-07T00:53:13;12.88;;;5.20;;
21036;SDS011;10677;50.942;4.028;2023-05-07T00:55:39;13.90;;;4.93;;
21036;SDS011;10677;50.942;4.028;2023-05-07T00:58:05;14.90;;;4.90;;
21036;SDS011;10677;50.942;4.028;2023-05-07T01:00:32;14.38;;;4.93;;
21036;SDS011;10677;50.942;4.028;2023-05-07T01:02:58;13.98;;;4.88;;
21036;SDS011;10677;50.942;4.028;2023-05-07T01:05:24;11.38;;;4.97;;
21036;SDS011;10677;50.942;4.028;2023-05-07T01:07:52;13.27;;;5.07;;
21036;SDS011;10677;50.942;4.028;2023-05-07T01:10:20;14.75;;;5.88;;
21036;SDS011;10677;50.942;4.028;2023-05-07T01:12:46;17.70;;;6.35;;
21036;SDS011;10677;50.942;4.028;2023-05-07T01:15:13;18.25;;;6.10;;
21036;SDS011;10677;50.942;4.028;2023-05-07T01:17:40;12.43;;;5.90;;
21036;SDS011;10677;50.942;4.028;2023-05-07T01:20:07;9.50;;;5.05;;
21036;SDS011;10677;50.942;4.028;2023-05-07T01:22:37;14.68;;;6.05;;
21036;SDS011;10677;50.942;4.028;2023-05-07T01:25:04;12.75;;;5.75;;
21036;SDS011;10677;50.942;4.028;2023-05-07T01:27:30;11.95;;;5.63;;
21036;SDS011;10677;50.942;4.028;2023-05-07T01:29:58;12.65;;;5.63;;
21036;SDS011;10677;50.942;4.028;2023-05-07T01:35:20;16.40;;;5.85;;
21036;SDS011;10677;50.942;4.028;2023-05-07T01:37:49;15.80;;;5.82;;
21036;SDS011;10677;50.942;4.028;2023-05-07T01:40:15;13.35;;;5.55;;
21036;SDS011;10677;50.942;4.028;2023-05-07T01:42:41;13.63;;;5.40;;
21036;SDS011;10677;50.942;4.028;2023-05-07T01:45:08;14.32;;;5.75;;
21036;SDS011;10677;50.942;4.028;2023-05-07T01:47:35;12.35;;;5.65;;
21036;SDS011;10677;50.942;4.028;2023-05-07T01:50:04;13.18;;;5.35;;
21036;SDS011;10677;50.942;4.028;2023-05-07T01:52:31;15.48;;;6.25;;
21036;SDS011;10677;50.942;4.028;2023-05-07T01:54:57;10.57;;;5.45;;
21036;SDS011;10677;50.942;4.028;2023-05-07T01:57:22;13.82;;;5.88;;
21036;SDS011;10677;50.942;4.028;2023-05-07T01:59:48;13.32;;;5.80;;
21036;SDS011;10677;50.942;4.028;2023-05-07T02:02:14;12.38;;;6.32;;
21036;SDS011;10677;50.942;4.028;2023-05-07T02:04:40;15.30;;;6.13;;
21036;SDS011;10677;50.942;4.028;2023-05-07T02:07:05;13.85;;;5.90;;
21036;SDS011;10677;50.942;4.028;2023-05-07T02:09:32;11.85;;;5.57;;
21036;SDS011;10677;50.942;4.028;2023-05-07T02:11:58;12.30;;;5.25;;
21036;SDS011;10677;50.942;4.028;2023-05-07T02:14:24;11.73;;;4.90;;
21036;SDS011;10677;50.942;4.028;2023-05-07T02:16:51;14.52;;;5.82;;
21036;SDS011;10677;50.942;4.028;2023-05-07T02:19:16;14.25;;;6.20;;
21036;SDS011;10677;50.942;4.028;2023-05-07T02:21:43;15.20;;;6.53;;
21036;SDS011;10677;50.942;4.028;2023-05-07T02:24:08;14.82;;;6.45;;
21036;SDS011;10677;50.942;4.028;2023-05-07T02:26:34;11.95;;;5.88;;
21036;SDS011;10677;50.942;4.028;2023-05-07T02:29:00;20.02;;;6.15;;
21036;SDS011;10677;50.942;4.028;2023-05-07T02:31:25;17.08;;;6.53;;
21036;SDS011;10677;50.942;4.028;2023-05-07T02:33:51;10.93;;;5.75;;
21036;SDS011;10677;50.942;4.028;2023-05-07T02:36:17;15.65;;;6.72;;
21036;SDS011;10677;50.942;4.028;2023-05-07T02:38:42;14.30;;;6.22;;
21036;SDS011;10677;50.942;4.028;2023-05-07T02:41:08;16.13;;;6.68;;
21036;SDS011;10677;50.942;4.028;2023-05-07T02:43:34;11.80;;;6.45;;
21036;SDS011;10677;50.942;4.028;2023-05-07T02:46:06;12.98;;;6.00;;
21036;SDS011;10677;50.942;4.028;2023-05-07T02:48:33;11.68;;;5.85;;
21036;SDS011;10677;50.942;4.028;2023-05-07T02:50:59;12.95;;;5.90;;
21036;SDS011;10677;50.942;4.028;2023-05-07T02:53:25;11.48;;;6.00;;
21036;SDS011;10677;50.942;4.028;2023-05-07T02:55:58;15.18;;;6.30;;
21036;SDS011;10677;50.942;4.028;2023-05-07T02:58:25;17.63;;;5.88;;
21036;SDS011;10677;50.942;4.028;2023-05-07T03:00:51;16.92;;;6.88;;
21036;SDS011;10677;50.942;4.028;2023-05-07T03:03:17;13.02;;;5.68;;
21036;SDS011;10677;50.942;4.028;2023-05-07T03:05:43;14.57;;;6.40;;
21036;SDS011;10677;50.942;4.028;2023-05-07T03:08:08;14.65;;;5.78;;
21036;SDS011;10677;50.942;4.028;2023-05-07T03:10:35;13.27;;;6.20;;
21036;SDS011;10677;50.942;4.028;2023-05-07T03:13:01;15.23;;;6.40;;
21036;SDS011;10677;50.942;4.028;2023-05-07T03:15:27;13.77;;;6.22;;
21036;SDS011;10677;50.942;4.028;2023-05-07T03:17:53;11.45;;;5.60;;
21036;SDS011;10677;50.942;4.028;2023-05-07T03:20:19;9.90;;;6.07;;
21036;SDS011;10677;50.942;4.028;2023-05-07T03:22:44;16.38;;;6.00;;
21036;SDS011;10677;50.942;4.028;2023-05-07T03:25:10;16.20;;;5.95;;
21036;SDS011;10677;50.942;4.028;2023-05-07T03:27:36;10.73;;;5.82;;
21036;SDS011;10677;50.942;4.028;2023-05-07T03:30:02;15.60;;;5.75;;
21036;SDS011;10677;50.942;4.028;2023-05-07T03:32:28;12.32;;;6.03;;
21036;SDS011;10677;50.942;4.028;2023-05-07T03:34:53;14.43;;;6.18;;
21036;SDS011;10677;50.942;4.028;2023-05-07T03:37:19;13.25;;;5.40;;
21036;SDS011;10677;50.942;4.028;2023-05-07T03:39:45;12.23;;;6.03;;
21036;SDS011;10677;50.942;4.028;2023-05-07T03:42:10;13.45;;;6.00;;
21036;SDS011;10677;50.942;4.028;2023-05-07T03:44:36;9.70;;;5.50;;
21036;SDS011;10677;50.942;4.028;2023-05-07T03:47:02;13.98;;;6.07;;
21036;SDS011;10677;50.942;4.028;2023-05-07T03:49:28;13.02;;;6.07;;
21036;SDS011;10677;50.942;4.028;2023-05-07T03:51:54;15.27;;;5.53;;
21036;SDS011;10677;50.942;4.028;2023-05-07T03:54:20;14.23;;;6.20;;
21036;SDS011;10677;50.942;4.028;2023-05-07T03:56:46;14.60;;;6.05;;
21036;SDS011;10677;50.942;4.028;2023-05-07T03:59:15;14.32;;;5.78;;
21036;SDS011;10677;50.942;4.028;2023-05-07T04:01:40;14.65;;;6.10;;
21036;SDS011;10677;50.942;4.028;2023-05-07T04:04:06;12.75;;;5.68;;
21036;SDS011;10677;50.942;4.028;2023-05-07T04:06:31;10.38;;;5.78;;
21036;SDS011;10677;50.942;4.028;2023-05-07T04:08:57;15.60;;;6.45;;
21036;SDS011;10677;50.942;4.028;2023-05-07T04:11:23;15.38;;;6.38;;
21036;SDS011;10677;50.942;4.028;2023-05-07T04:13:49;9.27;;;5.80;;
21036;SDS011;10677;50.942;4.028;2023-05-07T04:16:15;13.65;;;5.90;;
21036;SDS011;10677;50.942;4.028;2023-05-07T04:18:41;13.23;;;6.32;;
21036;SDS011;10677;50.942;4.028;2023-05-07T04:21:13;13.52;;;6.05;;
21036;SDS011;10677;50.942;4.028;2023-05-07T04:23:43;12.32;;;6.18;;
21036;SDS011;10677;50.942;4.028;2023-05-07T04:26:09;11.63;;;5.68;;
21036;SDS011;10677;50.942;4.028;2023-05-07T04:28:35;13.13;;;6.13;;
21036;SDS011;10677;50.942;4.028;2023-05-07T04:31:01;12.95;;;5.90;;
21036;SDS011;10677;50.942;4.028;2023-05-07T04:33:27;14.10;;;6.22;;
21036;SDS011;10677;50.942;4.028;2023-05-07T04:35:52;13.13;;;6.10;;
21036;SDS011;10677;50.942;4.028;2023-05-07T04:38:18;12.50;;;5.47;;
21036;SDS011;10677;50.942;4.028;2023-05-07T04:40:44;14.45;;;6.35;;
21036;SDS011;10677;50.942;4.028;2023-05-07T04:43:10;13.45;;;6.30;;
21036;SDS011;10677;50.942;4.028;2023-05-07T04:45:36;17.92;;;6.28;;
21036;SDS011;10677;50.942;4.028;2023-05-07T04:48:01;13.63;;;6.00;;
21036;SDS011;10677;50.942;4.028;2023-05-07T04:50:27;17.20;;;6.88;;
21036;SDS011;10677;50.942;4.028;2023-05-07T04:52:53;12.50;;;6.78;;
21036;SDS011;10677;50.942;4.028;2023-05-07T04:55:19;16.25;;;7.10;;
21036;SDS011;10677;50.942;4.028;2023-05-07T04:57:44;13.35;;;6.18;;
21036;SDS011;10677;50.942;4.028;2023-05-07T05:00:10;12.73;;;6.05;;
21036;SDS011;10677;50.942;4.028;2023-05-07T05:02:39;17.40;;;6.53;;
21036;SDS011;10677;50.942;4.028;2023-05-07T05:05:05;12.07;;;6.57;;
21036;SDS011;10677;50.942;4.028;2023-05-07T05:07:32;12.23;;;6.00;;
21036;SDS011;10677;50.942;4.028;2023-05-07T05:09:58;13.20;;;6.65;;
21036;SDS011;10677;50.942;4.028;2023-05-07T05:12:23;10.80;;;6.10;;
21036;SDS011;10677;50.942;4.028;2023-05-07T05:14:49;15.65;;;6.78;;
21036;SDS011;10677;50.942;4.028;2023-05-07T05:17:15;13.15;;;6.60;;
21036;SDS011;10677;50.942;4.028;2023-05-07T05:19:40;17.23;;;7.07;;
21036;SDS011;10677;50.942;4.028;2023-05-07T05:22:06;12.35;;;6.40;;
21036;SDS011;10677;50.942;4.028;2023-05-07T05:24:32;12.07;;;6.53;;
21036;SDS011;10677;50.942;4.028;2023-05-07T05:26:59;14.18;;;7.38;;
21036;SDS011;10677;50.942;4.028;2023-05-07T05:29:27;14.05;;;7.10;;
21036;SDS011;10677;50.942;4.028;2023-05-07T05:31:53;12.90;;;6.60;;
21036;SDS011;10677;50.942;4.028;2023-05-07T05:34:19;18.13;;;8.20;;
21036;SDS011;10677;50.942;4.028;2023-05-07T05:36:45;14.77;;;7.15;;
21036;SDS011;10677;50.942;4.028;2023-05-07T05:39:10;15.32;;;6.60;;
21036;SDS011;10677;50.942;4.028;2023-05-07T05:41:36;16.38;;;7.20;;
21036;SDS011;10677;50.942;4.028;2023-05-07T05:44:02;16.42;;;6.93;;
21036;SDS011;10677;50.942;4.028;2023-05-07T05:46:27;13.30;;;6.93;;
21036;SDS011;10677;50.942;4.028;2023-05-07T05:48:55;18.85;;;9.35;;
21036;SDS011;10677;50.942;4.028;2023-05-07T05:51:20;17.70;;;9.00;;
21036;SDS011;10677;50.942;4.028;2023-05-07T05:53:46;14.85;;;7.72;;
21036;SDS011;10677;50.942;4.028;2023-05-07T05:56:12;15.80;;;6.95;;
21036;SDS011;10677;50.942;4.028;2023-05-07T05:58:40;14.30;;;6.38;;
21036;SDS011;10677;50.942;4.028;2023-05-07T06:01:06;14.68;;;7.03;;
21036;SDS011;10677;50.942;4.028;2023-05-07T06:03:31;13.18;;;6.35;;
21036;SDS011;10677;50.942;4.028;2023-05-07T06:05:57;16.75;;;6.55;;
21036;SDS011;10677;50.942;4.028;2023-05-07T06:08:23;17.27;;;7.80;;
21036;SDS011;10677;50.942;4.028;2023-05-07T06:10:49;12.55;;;6.10;;
21036;SDS011;10677;50.942;4.028;2023-05-07T06:13:15;14.18;;;6.18;;
21036;SDS011;10677;50.942;4.028;2023-05-07T06:15:40;11.95;;;5.35;;
21036;SDS011;10677;50.942;4.028;2023-05-07T06:18:06;12.35;;;6.00;;
21036;SDS011;10677;50.942;4.028;2023-05-07T06:20:32;15.00;;;5.80;;
21036;SDS011;10677;50.942;4.028;2023-05-07T06:22:57;10.98;;;5.53;;
21036;SDS011;10677;50.942;4.028;2023-05-07T06:25:23;11.02;;;6.25;;
21036;SDS011;10677;50.942;4.028;2023-05-07T06:27:48;17.05;;;6.45;;
21036;SDS011;10677;50.942;4.028;2023-05-07T06:30:14;14.45;;;6.70;;
21036;SDS011;10677;50.942;4.028;2023-05-07T06:32:40;13.27;;;6.75;;
21036;SDS011;10677;50.942;4.028;2023-05-07T06:35:06;12.20;;;6.43;;
21036;SDS011;10677;50.942;4.028;2023-05-07T06:37:32;12.10;;;6.38;;
21036;SDS011;10677;50.942;4.028;2023-05-07T06:39:57;13.13;;;6.25;;
21036;SDS011;10677;50.942;4.028;2023-05-07T06:42:23;12.77;;;6.47;;
21036;SDS011;10677;50.942;4.028;2023-05-07T06:44:49;12.00;;;6.47;;
21036;SDS011;10677;50.942;4.028;2023-05-07T06:47:15;12.73;;;7.10;;
21036;SDS011;10677;50.942;4.028;2023-05-07T06:49:40;13.60;;;7.07;;
21036;SDS011;10677;50.942;4.028;2023-05-07T06:52:06;15.25;;;6.00;;
21036;SDS011;10677;50.942;4.028;2023-05-07T06:54:31;12.85;;;5.90;;
21036;SDS011;10677;50.942;4.028;2023-05-07T06:56:57;11.85;;;6.25;;
21036;SDS011;10677;50.942;4.028;2023-05-07T06:59:23;17.10;;;6.82;;
21036;SDS011;10677;50.942;4.028;2023-05-07T07:01:49;11.75;;;6.72;;
21036;SDS011;10677;50.942;4.028;2023-05-07T07:04:14;14.60;;;6.15;;
21036;SDS011;10677;50.942;4.028;2023-05-07T07:06:40;11.98;;;5.50;;
21036;SDS011;10677;50.942;4.028;2023-05-07T07:09:06;9.13;;;6.00;;
21036;SDS011;10677;50.942;4.028;2023-05-07T07:11:31;11.18;;;5.05;;
21036;SDS011;10677;50.942;4.028;2023-05-07T07:13:58;10.98;;;5.15;;
21036;SDS011;10677;50.942;4.028;2023-05-07T07:16:24;11.25;;;4.90;;
21036;SDS011;10677;50.942;4.028;2023-05-07T07:18:50;11.52;;;4.70;;
21036;SDS011;10677;50.942;4.028;2023-05-07T07:21:16;11.90;;;4.60;;
21036;SDS011;10677;50.942;4.028;2023-05-07T07:23:42;14.63;;;5.53;;
21036;SDS011;10677;50.942;4.028;2023-05-07T07:26:07;12.18;;;5.15;;
21036;SDS011;10677;50.942;4.028;2023-05-07T07:28:33;10.15;;;4.82;;
21036;SDS011;10677;50.942;4.028;2023-05-07T07:30:59;9.98;;;5.80;;
21036;SDS011;10677;50.942;4.028;2023-05-07T07:33:24;10.27;;;4.30;;
21036;SDS011;10677;50.942;4.028;2023-05-07T07:35:50;10.05;;;5.05;;
21036;SDS011;10677;50.942;4.028;2023-05-07T07:38:16;9.32;;;4.70;;
21036;SDS011;10677;50.942;4.028;2023-05-07T07:40:41;10.13;;;4.70;;
21036;SDS011;10677;50.942;4.028;2023-05-07T07:43:08;12.15;;;4.50;;
21036;SDS011;10677;50.942;4.028;2023-05-07T07:45:34;12.00;;;4.78;;
21036;SDS011;10677;50.942;4.028;2023-05-07T07:48:00;15.18;;;5.25;;
21036;SDS011;10677;50.942;4.028;2023-05-07T07:50:26;8.48;;;4.15;;
21036;SDS011;10677;50.942;4.028;2023-05-07T07:52:51;10.77;;;3.95;;
21036;SDS011;10677;50.942;4.028;2023-05-07T07:55:19;12.65;;;4.60;;
21036;SDS011;10677;50.942;4.028;2023-05-07T07:57:48;8.60;;;3.63;;
21036;SDS011;10677;50.942;4.028;2023-05-07T08:00:14;13.30;;;4.18;;
21036;SDS011;10677;50.942;4.028;2023-05-07T08:02:41;9.00;;;3.80;;
21036;SDS011;10677;50.942;4.028;2023-05-07T08:05:07;9.13;;;4.18;;
21036;SDS011;10677;50.942;4.028;2023-05-07T08:07:33;13.30;;;4.65;;
21036;SDS011;10677;50.942;4.028;2023-05-07T08:09:58;11.38;;;4.32;;
21036;SDS011;10677;50.942;4.028;2023-05-07T08:12:24;11.45;;;4.78;;
21036;SDS011;10677;50.942;4.028;2023-05-07T08:14:50;11.82;;;4.63;;
21036;SDS011;10677;50.942;4.028;2023-05-07T08:17:15;7.32;;;4.20;;
21036;SDS011;10677;50.942;4.028;2023-05-07T08:19:42;13.18;;;4.80;;
21036;SDS011;10677;50.942;4.028;2023-05-07T08:22:08;12.65;;;5.18;;
21036;SDS011;10677;50.942;4.028;2023-05-07T08:24:35;10.52;;;5.28;;
21036;SDS011;10677;50.942;4.028;2023-05-07T08:27:01;14.40;;;6.55;;
21036;SDS011;10677;50.942;4.028;2023-05-07T08:29:27;12.60;;;7.03;;
21036;SDS011;10677;50.942;4.028;2023-05-07T08:31:52;15.30;;;7.13;;
21036;SDS011;10677;50.942;4.028;2023-05-07T08:34:19;12.65;;;7.40;;
21036;SDS011;10677;50.942;4.028;2023-05-07T08:36:44;12.18;;;6.78;;
21036;SDS011;10677;50.942;4.028;2023-05-07T08:39:13;14.10;;;7.45;;
21036;SDS011;10677;50.942;4.028;2023-05-07T08:41:40;17.25;;;8.50;;
21036;SDS011;10677;50.942;4.028;2023-05-07T08:44:06;15.52;;;7.82;;
21036;SDS011;10677;50.942;4.028;2023-05-07T08:46:37;17.50;;;8.57;;
21036;SDS011;10677;50.942;4.028;2023-05-07T08:49:04;20.67;;;9.63;;
21036;SDS011;10677;50.942;4.028;2023-05-07T08:51:30;15.40;;;9.05;;
21036;SDS011;10677;50.942;4.028;2023-05-07T08:53:56;15.00;;;7.97;;
21036;SDS011;10677;50.942;4.028;2023-05-07T08:56:23;15.88;;;7.60;;
21036;SDS011;10677;50.942;4.028;2023-05-07T08:58:50;13.88;;;8.13;;
21036;SDS011;10677;50.942;4.028;2023-05-07T09:01:16;15.98;;;7.22;;
21036;SDS011;10677;50.942;4.028;2023-05-07T09:03:45;11.52;;;6.55;;
21036;SDS011;10677;50.942;4.028;2023-05-07T09:06:12;14.25;;;6.50;;
21036;SDS011;10677;50.942;4.028;2023-05-07T09:08:37;12.77;;;5.95;;
21036;SDS011;10677;50.942;4.028;2023-05-07T09:11:03;13.20;;;6.05;;
21036;SDS011;10677;50.942;4.028;2023-05-07T09:13:29;12.18;;;6.90;;
21036;SDS011;10677;50.942;4.028;2023-05-07T09:15:55;13.85;;;6.65;;
21036;SDS011;10677;50.942;4.028;2023-05-07T09:18:21;13.57;;;6.57;;
21036;SDS011;10677;50.942;4.028;2023-05-07T09:20:49;8.43;;;4.43;;
21036;SDS011;10677;50.942;4.028;2023-05-07T09:23:15;11.82;;;4.38;;
21036;SDS011;10677;50.942;4.028;2023-05-07T09:25:41;8.50;;;3.95;;
21036;SDS011;10677;50.942;4.028;2023-05-07T09:28:07;9.93;;;3.45;;
21036;SDS011;10677;50.942;4.028;2023-05-07T09:30:35;7.70;;;3.45;;
21036;SDS011;10677;50.942;4.028;2023-05-07T09:33:01;7.32;;;3.22;;
21036;SDS011;10677;50.942;4.028;2023-05-07T09:35:28;7.85;;;3.50;;
21036;SDS011;10677;50.942;4.028;2023-05-07T09:37:55;8.20;;;3.65;;
21036;SDS011;10677;50.942;4.028;2023-05-07T09:40:22;9.32;;;4.05;;
21036;SDS011;10677;50.942;4.028;2023-05-07T09:42:49;9.82;;;4.03;;
21036;SDS011;10677;50.942;4.028;2023-05-07T09:45:22;9.82;;;3.65;;
21036;SDS011;10677;50.942;4.028;2023-05-07T09:47:50;6.07;;;3.22;;
21036;SDS011;10677;50.942;4.028;2023-05-07T09:51:09;6.97;;;2.50;;
21036;SDS011;10677;50.942;4.028;2023-05-07T09:53:13;7.28;;;3.28;;
21036;SDS011;10677;50.942;4.028;2023-05-07T09:55:41;5.78;;;3.20;;
21036;SDS011;10677;50.942;4.028;2023-05-07T09:58:07;6.30;;;3.08;;
21036;SDS011;10677;50.942;4.028;2023-05-07T10:00:34;8.10;;;3.70;;
21036;SDS011;10677;50.942;4.028;2023-05-07T10:03:01;7.10;;;3.42;;
21036;SDS011;10677;50.942;4.028;2023-05-07T10:05:27;6.85;;;3.40;;
21036;SDS011;10677;50.942;4.028;2023-05-07T10:07:54;9.20;;;3.50;;
21036;SDS011;10677;50.942;4.028;2023-05-07T10:10:22;10.15;;;3.80;;
21036;SDS011;10677;50.942;4.028;2023-05-07T10:12:48;8.52;;;3.50;;
21036;SDS011;10677;50.942;4.028;2023-05-07T10:15:15;9.20;;;3.83;;
21036;SDS011;10677;50.942;4.028;2023-05-07T10:17:42;6.45;;;3.38;;
21036;SDS011;10677;50.942;4.028;2023-05-07T10:20:08;8.98;;;3.67;;
21036;SDS011;10677;50.942;4.028;2023-05-07T10:22:38;7.32;;;3.78;;
21036;SDS011;10677;50.942;4.028;2023-05-07T10:25:18;9.25;;;3.75;;
21036;SDS011;10677;50.942;4.028;2023-05-07T10:27:47;8.30;;;3.47;;
21036;SDS011;10677;50.942;4.028;2023-05-07T10:32:50;7.80;;;4.22;;
21036;SDS011;10677;50.942;4.028;2023-05-07T10:35:20;8.27;;;4.03;;
21036;SDS011;10677;50.942;4.028;2023-05-07T10:37:49;6.70;;;4.18;;
21036;SDS011;10677;50.942;4.028;2023-05-07T10:40:15;8.60;;;4.22;;
21036;SDS011;10677;50.942;4.028;2023-05-07T10:43:02;8.50;;;4.30;;
21036;SDS011;10677;50.942;4.028;2023-05-07T10:45:30;7.05;;;3.95;;
21036;SDS011;10677;50.942;4.028;2023-05-07T10:50:41;6.20;;;4.10;;
21036;SDS011;10677;50.942;4.028;2023-05-07T10:55:51;7.93;;;4.43;;
21036;SDS011;10677;50.942;4.028;2023-05-07T10:58:37;7.97;;;4.60;;
21036;SDS011;10677;50.942;4.028;2023-05-07T11:01:02;7.70;;;4.47;;
21036;SDS011;10677;50.942;4.028;2023-05-07T11:03:28;6.90;;;4.53;;
21036;SDS011;10677;50.942;4.028;2023-05-07T11:06:14;7.82;;;4.75;;
21036;SDS011;10677;50.942;4.028;2023-05-07T11:14:09;11.65;;;4.72;;
21036;SDS011;10677;50.942;4.028;2023-05-07T11:16:34;5.63;;;3.92;;
21036;SDS011;10677;50.942;4.028;2023-05-07T11:19:02;6.40;;;4.35;;
21036;SDS011;10677;50.942;4.028;2023-05-07T11:21:35;7.93;;;4.30;;
21036;SDS011;10677;50.942;4.028;2023-05-07T11:24:06;8.40;;;4.05;;
21036;SDS011;10677;50.942;4.028;2023-05-07T11:26:48;7.80;;;4.13;;
21036;SDS011;10677;50.942;4.028;2023-05-07T11:29:16;8.38;;;4.60;;
21036;SDS011;10677;50.942;4.028;2023-05-07T11:31:43;7.20;;;4.13;;
21036;SDS011;10677;50.942;4.028;2023-05-07T11:34:09;7.28;;;4.50;;
21036;SDS011;10677;50.942;4.028;2023-05-07T11:36:37;11.13;;;4.53;;
21036;SDS011;10677;50.942;4.028;2023-05-07T11:39:30;7.30;;;4.65;;
21036;SDS011;10677;50.942;4.028;2023-05-07T11:44:41;6.80;;;3.65;;
21036;SDS011;10677;50.942;4.028;2023-05-07T11:47:08;6.30;;;3.75;;
21036;SDS011;10677;50.942;4.028;2023-05-07T11:49:35;6.47;;;3.70;;
21036;SDS011;10677;50.942;4.028;2023-05-07T11:52:01;6.60;;;3.92;;
21036;SDS011;10677;50.942;4.028;2023-05-07T11:54:34;4.32;;;2.75;;
21036;SDS011;10677;50.942;4.028;2023-05-07T11:57:01;6.03;;;4.07;;
21036;SDS011;10677;50.942;4.028;2023-05-07T11:59:27;7.28;;;3.22;;
21036;SDS011;10677;50.942;4.028;2023-05-07T12:01:55;4.40;;;3.28;;
21036;SDS011;10677;50.942;4.028;2023-05-07T12:04:22;4.18;;;2.70;;
21036;SDS011;10677;50.942;4.028;2023-05-07T12:06:48;5.45;;;2.80;;
21036;SDS011;10677;50.942;4.028;2023-05-07T12:09:15;4.07;;;2.80;;
21036;SDS011;10677;50.942;4.028;2023-05-07T12:11:42;5.63;;;2.80;;
21036;SDS011;10677;50.942;4.028;2023-05-07T12:14:11;3.75;;;2.40;;
21036;SDS011;10677;50.942;4.028;2023-05-07T12:16:36;4.30;;;2.30;;
21036;SDS011;10677;50.942;4.028;2023-05-07T12:19:04;3.15;;;2.33;;
21036;SDS011;10677;50.942;4.028;2023-05-07T12:21:33;4.55;;;2.53;;
21036;SDS011;10677;50.942;4.028;2023-05-07T12:23:59;4.97;;;2.50;;
21036;SDS011;10677;50.942;4.028;2023-05-07T12:26:24;4.00;;;2.30;;
21036;SDS011;10677;50.942;4.028;2023-05-07T12:28:50;5.10;;;2.40;;
21036;SDS011;10677;50.942;4.028;2023-05-07T12:31:16;4.90;;;2.10;;
21036;SDS011;10677;50.942;4.028;2023-05-07T12:33:42;4.38;;;2.50;;
21036;SDS011;10677;50.942;4.028;2023-05-07T12:36:08;4.55;;;2.85;;
21036;SDS011;10677;50.942;4.028;2023-05-07T12:38:34;5.93;;;3.60;;
21036;SDS011;10677;50.942;4.028;2023-05-07T12:41:05;5.40;;;3.72;;
21036;SDS011;10677;50.942;4.028;2023-05-07T12:43:34;7.78;;;4.00;;
21036;SDS011;10677;50.942;4.028;2023-05-07T12:46:01;7.75;;;4.30;;
21036;SDS011;10677;50.942;4.028;2023-05-07T12:48:30;6.43;;;5.25;;
21036;SDS011;10677;50.942;4.028;2023-05-07T12:50:57;6.35;;;4.82;;
21036;SDS011;10677;50.942;4.028;2023-05-07T12:53:25;7.57;;;5.15;;
21036;SDS011;10677;50.942;4.028;2023-05-07T12:55:53;7.28;;;4.85;;
21036;SDS011;10677;50.942;4.028;2023-05-07T12:58:21;6.50;;;5.45;;
21036;SDS011;10677;50.942;4.028;2023-05-07T13:00:53;6.32;;;5.40;;
21036;SDS011;10677;50.942;4.028;2023-05-07T13:05:59;5.78;;;4.82;;
21036;SDS011;10677;50.942;4.028;2023-05-07T13:11:02;11.68;;;7.82;;
21036;SDS011;10677;50.942;4.028;2023-05-07T13:13:29;6.65;;;5.55;;
21036;SDS011;10677;50.942;4.028;2023-05-07T13:15:56;7.10;;;5.13;;
21036;SDS011;10677;50.942;4.028;2023-05-07T13:18:21;8.68;;;5.35;;
21036;SDS011;10677;50.942;4.028;2023-05-07T13:20:49;7.88;;;5.55;;
21036;SDS011;10677;50.942;4.028;2023-05-07T13:23:15;8.25;;;5.20;;
21036;SDS011;10677;50.942;4.028;2023-05-07T13:25:40;7.80;;;5.20;;
21036;SDS011;10677;50.942;4.028;2023-05-07T13:28:06;6.70;;;4.65;;
21036;SDS011;10677;50.942;4.028;2023-05-07T13:30:32;6.18;;;4.18;;
21036;SDS011;10677;50.942;4.028;2023-05-07T13:32:58;6.05;;;4.25;;
21036;SDS011;10677;50.942;4.028;2023-05-07T13:35:24;7.78;;;4.47;;
21036;SDS011;10677;50.942;4.028;2023-05-07T13:37:50;6.32;;;4.25;;
21036;SDS011;10677;50.942;4.028;2023-05-07T13:40:17;7.03;;;4.65;;
21036;SDS011;10677;50.942;4.028;2023-05-07T13:42:44;7.30;;;4.78;;
21036;SDS011;10677;50.942;4.028;2023-05-07T13:45:10;7.00;;;4.50;;
21036;SDS011;10677;50.942;4.028;2023-05-07T13:47:35;6.65;;;4.72;;
21036;SDS011;10677;50.942;4.028;2023-05-07T13:50:01;9.20;;;4.40;;
21036;SDS011;10677;50.942;4.028;2023-05-07T13:52:27;8.05;;;4.60;;
21036;SDS011;10677;50.942;4.028;2023-05-07T13:54:53;6.90;;;4.68;;
21036;SDS011;10677;50.942;4.028;2023-05-07T13:57:20;7.00;;;4.18;;
21036;SDS011;10677;50.942;4.028;2023-05-07T13:59:45;6.47;;;4.28;;
21036;SDS011;10677;50.942;4.028;2023-05-07T14:02:11;5.65;;;3.90;;
21036;SDS011;10677;50.942;4.028;2023-05-07T14:04:37;5.50;;;4.30;;
21036;SDS011;10677;50.942;4.028;2023-05-07T14:07:03;7.25;;;4.43;;
21036;SDS011;10677;50.942;4.028;2023-05-07T14:09:29;9.57;;;4.70;;
21036;SDS011;10677;50.942;4.028;2023-05-07T14:11:54;7.22;;;4.50;;
21036;SDS011;10677;50.942;4.028;2023-05-07T14:14:20;8.63;;;5.18;;
21036;SDS011;10677;50.942;4.028;2023-05-07T14:16:46;6.70;;;4.75;;
21036;SDS011;10677;50.942;4.028;2023-05-07T14:19:12;7.03;;;5.05;;
21036;SDS011;10677;50.942;4.028;2023-05-07T14:21:37;8.45;;;5.72;;
21036;SDS011;10677;50.942;4.028;2023-05-07T14:24:03;7.70;;;5.50;;
21036;SDS011;10677;50.942;4.028;2023-05-07T14:26:30;8.00;;;6.10;;
21036;SDS011;10677;50.942;4.028;2023-05-07T14:28:57;10.07;;;6.70;;
21036;SDS011;10677;50.942;4.028;2023-05-07T14:31:23;11.75;;;6.32;;
21036;SDS011;10677;50.942;4.028;2023-05-07T14:33:49;10.48;;;6.55;;
21036;SDS011;10677;50.942;4.028;2023-05-07T14:36:15;10.18;;;6.57;;
21036;SDS011;10677;50.942;4.028;2023-05-07T14:38:42;11.13;;;6.78;;
21036;SDS011;10677;50.942;4.028;2023-05-07T14:41:08;10.93;;;6.65;;
21036;SDS011;10677;50.942;4.028;2023-05-07T14:43:34;9.32;;;6.55;;
21036;SDS011;10677;50.942;4.028;2023-05-07T14:45:59;10.23;;;7.22;;
21036;SDS011;10677;50.942;4.028;2023-05-07T14:48:25;9.43;;;6.25;;
21036;SDS011;10677;50.942;4.028;2023-05-07T14:50:51;12.55;;;8.15;;
21036;SDS011;10677;50.942;4.028;2023-05-07T14:53:16;11.07;;;8.15;;
21036;SDS011;10677;50.942;4.028;2023-05-07T14:55:42;12.50;;;8.00;;
21036;SDS011;10677;50.942;4.028;2023-05-07T14:58:07;12.18;;;8.20;;
21036;SDS011;10677;50.942;4.028;2023-05-07T15:00:33;12.75;;;8.73;;